sensor_id;sensor_type;location;lat;lon;timestamp;P1;durP1;ratioP1;P2;durP2;ratioP2
74471;SDS011;62920;53.572;10.050;2023-01-16T00:00:33;5.53;;;2.63;;
74471;SDS011;62920;53.572;10.050;2023-01-16T00:02:59;5.00;;;2.72;;
74471;SDS011;62920;53.572;10.050;2023-01-16T00:05:24;10.80;;;3.35;;
74471;SDS011;62920;53.572;10.050;2023-01-16T00:07:49;6.35;;;2.75;;
74471;SDS011;62920;53.572;10.050;2023-01-16T00:10:15;7.15;;;2.75;;
74471;SDS011;62920;53.572;10.050;2023-01-16T00:12:41;5.45;;;3.05;;
74471;SDS011;62920;53.572;10.050;2023-01-16T00:15:07;6.05;;;2.65;;
74471;SDS011;62920;53.572;10.050;2023-01-16T00:17:32;4.88;;;2.60;;
74471;SDS011;62920;53.572;10.050;2023-01-16T00:19:58;7.57;;;3.13;;
74471;SDS011;62920;53.572;10.050;2023-01-16T00:22:23;6.30;;;2.83;;
74471;SDS011;62920;53.572;10.050;2023-01-16T00:24:48;7.57;;;3.25;;
74471;SDS011;62920;53.572;10.050;2023-01-16T00:27:14;8.95;;;3.30;;
74471;SDS011;62920;53.572;10.050;2023-01-16T00:29:39;7.80;;;3.25;;
74471;SDS011;62920;53.572;10.050;2023-01-16T00:32:05;7.03;;;3.03;;
74471;SDS011;62920;53.572;10.050;2023-01-16T00:34:30;6.45;;;3.15;;
74471;SDS011;62920;53.572;10.050;2023-01-16T00:36:55;9.98;;;2.83;;
74471;SDS011;62920;53.572;10.050;2023-01-16T00:39:21;6.85;;;3.03;;
74471;SDS011;62920;53.572;10.050;2023-01-16T00:41:46;8.65;;;2.80;;
74471;SDS011;62920;53.572;10.050;2023-01-16T00:44:12;6.68;;;2.88;;
74471;SDS011;62920;53.572;10.050;2023-01-16T00:46:37;7.57;;;2.53;;
74471;SDS011;62920;53.572;10.050;2023-01-16T00:49:02;9.38;;;2.67;;
74471;SDS011;62920;53.572;10.050;2023-01-16T00:51:28;5.85;;;2.58;;
74471;SDS011;62920;53.572;10.050;2023-01-16T00:53:53;8.40;;;2.45;;
74471;SDS011;62920;53.572;10.050;2023-01-16T00:56:19;6.35;;;2.17;;
74471;SDS011;62920;53.572;10.050;2023-01-16T00:58:44;6.82;;;2.10;;
74471;SDS011;62920;53.572;10.050;2023-01-16T01:01:09;5.72;;;2.00;;
74471;SDS011;62920;53.572;10.050;2023-01-16T01:03:35;7.65;;;2.15;;
74471;SDS011;62920;53.572;10.050;2023-01-16T01:06:04;7.03;;;1.80;;
74471;SDS011;62920;53.572;10.050;2023-01-16T01:08:31;5.22;;;1.85;;
74471;SDS011;62920;53.572;10.050;2023-01-16T01:10:57;6.95;;;1.75;;
74471;SDS011;62920;53.572;10.050;2023-01-16T01:13:22;7.75;;;2.38;;
74471;SDS011;62920;53.572;10.050;2023-01-16T01:15:47;5.25;;;1.85;;
74471;SDS011;62920;53.572;10.050;2023-01-16T01:18:13;5.57;;;2.03;;
74471;SDS011;62920;53.572;10.050;2023-01-16T01:20:38;4.80;;;1.90;;
74471;SDS011;62920;53.572;10.050;2023-01-16T01:23:03;6.35;;;2.00;;
74471;SDS011;62920;53.572;10.050;2023-01-16T01:25:29;7.18;;;2.42;;
74471;SDS011;62920;53.572;10.050;2023-01-16T01:27:54;5.57;;;2.03;;
74471;SDS011;62920;53.572;10.050;2023-01-16T01:30:20;6.22;;;1.92;;
74471;SDS011;62920;53.572;10.050;2023-01-16T01:32:45;5.05;;;1.90;;
74471;SDS011;62920;53.572;10.050;2023-01-16T01:35:10;7.32;;;2.40;;
74471;SDS011;62920;53.572;10.050;2023-01-16T01:37:36;4.53;;;2.13;;
74471;SDS011;62920;53.572;10.050;2023-01-16T01:40:02;7.00;;;2.08;;
74471;SDS011;62920;53.572;10.050;2023-01-16T01:42:29;3.85;;;1.67;;
74471;SDS011;62920;53.572;10.050;2023-01-16T01:45:16;4.15;;;1.70;;
74471;SDS011;62920;53.572;10.050;2023-01-16T01:53:24;6.85;;;1.70;;
74471;SDS011;62920;53.572;10.050;2023-01-16T01:58:18;4.43;;;1.23;;
74471;SDS011;62920;53.572;10.050;2023-01-16T02:00:50;3.17;;;1.27;;
74471;SDS011;62920;53.572;10.050;2023-01-16T02:03:19;3.35;;;1.10;;
74471;SDS011;62920;53.572;10.050;2023-01-16T02:05:54;4.18;;;1.05;;
74471;SDS011;62920;53.572;10.050;2023-01-16T02:08:22;3.55;;;0.90;;
74471;SDS011;62920;53.572;10.050;2023-01-16T02:10:55;6.43;;;1.50;;
74471;SDS011;62920;53.572;10.050;2023-01-16T02:13:23;3.47;;;1.10;;
74471;SDS011;62920;53.572;10.050;2023-01-16T02:15:49;5.28;;;1.08;;
74471;SDS011;62920;53.572;10.050;2023-01-16T02:18:33;3.20;;;1.10;;
74471;SDS011;62920;53.572;10.050;2023-01-16T02:27:10;4.13;;;1.00;;
74471;SDS011;62920;53.572;10.050;2023-01-16T02:35:28;3.15;;;1.10;;
74471;SDS011;62920;53.572;10.050;2023-01-16T02:44:02;2.90;;;0.80;;
74471;SDS011;62920;53.572;10.050;2023-01-16T02:46:45;5.38;;;1.00;;
74471;SDS011;62920;53.572;10.050;2023-01-16T02:52:16;4.47;;;1.30;;
74471;SDS011;62920;53.572;10.050;2023-01-16T02:54:46;4.05;;;1.10;;
74471;SDS011;62920;53.572;10.050;2023-01-16T02:57:17;8.43;;;1.30;;
74471;SDS011;62920;53.572;10.050;2023-01-16T02:59:44;3.70;;;0.98;;
74471;SDS011;62920;53.572;10.050;2023-01-16T03:02:09;3.40;;;0.90;;
74471;SDS011;62920;53.572;10.050;2023-01-16T03:04:48;3.38;;;0.95;;
74471;SDS011;62920;53.572;10.050;2023-01-16T03:07:34;3.75;;;0.90;;
74471;SDS011;62920;53.572;10.050;2023-01-16T03:15:27;4.90;;;1.05;;
74471;SDS011;62920;53.572;10.050;2023-01-16T03:18:17;2.90;;;1.10;;
74471;SDS011;62920;53.572;10.050;2023-01-16T03:33:52;4.05;;;1.42;;
74471;SDS011;62920;53.572;10.050;2023-01-16T03:39:26;3.78;;;0.90;;
74471;SDS011;62920;53.572;10.050;2023-01-16T03:41:55;6.68;;;1.15;;
74471;SDS011;62920;53.572;10.050;2023-01-16T03:44:29;3.22;;;1.00;;
74471;SDS011;62920;53.572;10.050;2023-01-16T03:46:58;3.75;;;0.80;;
74471;SDS011;62920;53.572;10.050;2023-01-16T03:49:36;3.53;;;1.00;;
74471;SDS011;62920;53.572;10.050;2023-01-16T03:52:05;4.35;;;0.82;;
74471;SDS011;62920;53.572;10.050;2023-01-16T03:54:55;3.47;;;0.82;;
74471;SDS011;62920;53.572;10.050;2023-01-16T03:57:24;5.05;;;1.00;;
74471;SDS011;62920;53.572;10.050;2023-01-16T03:59:51;5.28;;;1.08;;
74471;SDS011;62920;53.572;10.050;2023-01-16T04:07:31;6.85;;;1.10;;
74471;SDS011;62920;53.572;10.050;2023-01-16T04:10:07;3.97;;;0.80;;
74471;SDS011;62920;53.572;10.050;2023-01-16T04:12:35;4.93;;;1.25;;
74471;SDS011;62920;53.572;10.050;2023-01-16T04:15:07;2.72;;;1.05;;
74471;SDS011;62920;53.572;10.050;2023-01-16T04:17:34;3.50;;;0.93;;
74471;SDS011;62920;53.572;10.050;2023-01-16T04:20:01;6.55;;;1.02;;
74471;SDS011;62920;53.572;10.050;2023-01-16T04:22:27;2.78;;;0.75;;
74471;SDS011;62920;53.572;10.050;2023-01-16T04:27:20;5.97;;;1.00;;
74471;SDS011;62920;53.572;10.050;2023-01-16T04:29:45;2.72;;;0.65;;
74471;SDS011;62920;53.572;10.050;2023-01-16T04:32:11;5.05;;;1.17;;
74471;SDS011;62920;53.572;10.050;2023-01-16T04:34:37;5.25;;;0.88;;
74471;SDS011;62920;53.572;10.050;2023-01-16T04:37:03;3.25;;;0.90;;
74471;SDS011;62920;53.572;10.050;2023-01-16T04:39:28;3.47;;;0.85;;
74471;SDS011;62920;53.572;10.050;2023-01-16T04:41:54;7.20;;;0.88;;
74471;SDS011;62920;53.572;10.050;2023-01-16T04:44:19;4.13;;;0.90;;
74471;SDS011;62920;53.572;10.050;2023-01-16T04:46:44;4.43;;;0.98;;
74471;SDS011;62920;53.572;10.050;2023-01-16T04:49:10;5.68;;;0.85;;
74471;SDS011;62920;53.572;10.050;2023-01-16T04:51:36;5.20;;;0.80;;
74471;SDS011;62920;53.572;10.050;2023-01-16T04:54:02;3.60;;;0.90;;
74471;SDS011;62920;53.572;10.050;2023-01-16T04:56:31;4.32;;;1.00;;
74471;SDS011;62920;53.572;10.050;2023-01-16T04:58:57;4.35;;;0.80;;
74471;SDS011;62920;53.572;10.050;2023-01-16T05:01:22;5.47;;;1.17;;
74471;SDS011;62920;53.572;10.050;2023-01-16T05:03:48;4.93;;;0.90;;
74471;SDS011;62920;53.572;10.050;2023-01-16T05:06:13;1.77;;;0.50;;
74471;SDS011;62920;53.572;10.050;2023-01-16T05:08:39;6.35;;;0.98;;
74471;SDS011;62920;53.572;10.050;2023-01-16T05:11:04;2.38;;;0.73;;
74471;SDS011;62920;53.572;10.050;2023-01-16T05:13:30;3.03;;;0.90;;
74471;SDS011;62920;53.572;10.050;2023-01-16T05:15:55;3.60;;;1.10;;
74471;SDS011;62920;53.572;10.050;2023-01-16T05:18:21;5.18;;;0.93;;
74471;SDS011;62920;53.572;10.050;2023-01-16T05:20:47;3.67;;;0.60;;
74471;SDS011;62920;53.572;10.050;2023-01-16T05:23:13;2.33;;;0.68;;
74471;SDS011;62920;53.572;10.050;2023-01-16T05:25:38;6.63;;;0.82;;
74471;SDS011;62920;53.572;10.050;2023-01-16T05:28:04;2.75;;;0.70;;
74471;SDS011;62920;53.572;10.050;2023-01-16T05:30:30;5.15;;;0.80;;
74471;SDS011;62920;53.572;10.050;2023-01-16T05:32:56;4.03;;;0.80;;
74471;SDS011;62920;53.572;10.050;2023-01-16T05:35:21;5.78;;;0.73;;
74471;SDS011;62920;53.572;10.050;2023-01-16T05:37:46;2.38;;;0.75;;
74471;SDS011;62920;53.572;10.050;2023-01-16T05:40:12;3.55;;;0.70;;
74471;SDS011;62920;53.572;10.050;2023-01-16T05:42:38;2.25;;;0.50;;
74471;SDS011;62920;53.572;10.050;2023-01-16T05:45:03;3.67;;;0.73;;
74471;SDS011;62920;53.572;10.050;2023-01-16T05:47:29;3.33;;;0.52;;
74471;SDS011;62920;53.572;10.050;2023-01-16T05:49:55;5.90;;;0.73;;
74471;SDS011;62920;53.572;10.050;2023-01-16T05:52:23;4.60;;;0.73;;
74471;SDS011;62920;53.572;10.050;2023-01-16T05:54:52;1.90;;;0.60;;
74471;SDS011;62920;53.572;10.050;2023-01-16T05:57:18;3.25;;;0.70;;
74471;SDS011;62920;53.572;10.050;2023-01-16T05:59:46;7.07;;;0.70;;
74471;SDS011;62920;53.572;10.050;2023-01-16T06:02:12;3.15;;;0.65;;
74471;SDS011;62920;53.572;10.050;2023-01-16T06:04:38;2.95;;;0.50;;
74471;SDS011;62920;53.572;10.050;2023-01-16T06:07:03;2.47;;;0.57;;
74471;SDS011;62920;53.572;10.050;2023-01-16T06:09:28;8.43;;;0.90;;
74471;SDS011;62920;53.572;10.050;2023-01-16T06:11:54;3.40;;;0.60;;
74471;SDS011;62920;53.572;10.050;2023-01-16T06:14:19;3.08;;;0.75;;
74471;SDS011;62920;53.572;10.050;2023-01-16T06:16:44;3.10;;;0.47;;
74471;SDS011;62920;53.572;10.050;2023-01-16T06:19:10;3.20;;;0.40;;
74471;SDS011;62920;53.572;10.050;2023-01-16T06:21:35;1.80;;;0.50;;
74471;SDS011;62920;53.572;10.050;2023-01-16T06:24:01;2.72;;;0.70;;
74471;SDS011;62920;53.572;10.050;2023-01-16T06:26:26;5.45;;;0.70;;
74471;SDS011;62920;53.572;10.050;2023-01-16T06:28:52;2.00;;;0.70;;
74471;SDS011;62920;53.572;10.050;2023-01-16T06:31:17;3.88;;;0.70;;
74471;SDS011;62920;53.572;10.050;2023-01-16T06:33:42;3.90;;;0.82;;
74471;SDS011;62920;53.572;10.050;2023-01-16T06:36:08;3.78;;;0.70;;
74471;SDS011;62920;53.572;10.050;2023-01-16T06:38:33;5.95;;;0.80;;
74471;SDS011;62920;53.572;10.050;2023-01-16T06:40:58;3.05;;;0.77;;
74471;SDS011;62920;53.572;10.050;2023-01-16T06:43:27;3.65;;;0.80;;
74471;SDS011;62920;53.572;10.050;2023-01-16T06:45:53;3.33;;;0.73;;
74471;SDS011;62920;53.572;10.050;2023-01-16T06:48:19;3.10;;;0.77;;
74471;SDS011;62920;53.572;10.050;2023-01-16T06:50:44;4.10;;;0.65;;
74471;SDS011;62920;53.572;10.050;2023-01-16T06:53:10;4.00;;;0.60;;
74471;SDS011;62920;53.572;10.050;2023-01-16T06:55:36;2.90;;;0.68;;
74471;SDS011;62920;53.572;10.050;2023-01-16T06:58:01;4.63;;;0.80;;
74471;SDS011;62920;53.572;10.050;2023-01-16T07:00:27;2.15;;;0.68;;
74471;SDS011;62920;53.572;10.050;2023-01-16T07:02:53;5.15;;;0.85;;
74471;SDS011;62920;53.572;10.050;2023-01-16T07:05:20;4.40;;;0.60;;
74471;SDS011;62920;53.572;10.050;2023-01-16T07:07:47;2.80;;;0.63;;
74471;SDS011;62920;53.572;10.050;2023-01-16T07:10:13;4.90;;;0.70;;
74471;SDS011;62920;53.572;10.050;2023-01-16T07:12:38;3.50;;;0.70;;
74471;SDS011;62920;53.572;10.050;2023-01-16T07:15:04;2.72;;;0.73;;
74471;SDS011;62920;53.572;10.050;2023-01-16T07:17:48;5.50;;;0.70;;
74471;SDS011;62920;53.572;10.050;2023-01-16T07:20:32;3.75;;;0.80;;
74471;SDS011;62920;53.572;10.050;2023-01-16T07:23:19;2.40;;;0.68;;
74471;SDS011;62920;53.572;10.050;2023-01-16T07:25:47;4.05;;;0.70;;
74471;SDS011;62920;53.572;10.050;2023-01-16T07:28:13;3.92;;;0.70;;
74471;SDS011;62920;53.572;10.050;2023-01-16T07:30:38;3.05;;;0.70;;
74471;SDS011;62920;53.572;10.050;2023-01-16T07:33:04;5.47;;;0.65;;
74471;SDS011;62920;53.572;10.050;2023-01-16T07:35:29;1.90;;;0.47;;
74471;SDS011;62920;53.572;10.050;2023-01-16T07:37:55;2.13;;;0.68;;
74471;SDS011;62920;53.572;10.050;2023-01-16T07:40:21;1.80;;;0.50;;
74471;SDS011;62920;53.572;10.050;2023-01-16T07:42:49;4.88;;;0.85;;
74471;SDS011;62920;53.572;10.050;2023-01-16T07:45:15;4.57;;;0.95;;
74471;SDS011;62920;53.572;10.050;2023-01-16T07:47:40;5.13;;;0.73;;
74471;SDS011;62920;53.572;10.050;2023-01-16T07:50:06;3.83;;;0.63;;
74471;SDS011;62920;53.572;10.050;2023-01-16T07:52:31;4.93;;;0.90;;
74471;SDS011;62920;53.572;10.050;2023-01-16T07:54:57;5.30;;;1.00;;
74471;SDS011;62920;53.572;10.050;2023-01-16T07:57:22;2.53;;;0.80;;
74471;SDS011;62920;53.572;10.050;2023-01-16T07:59:50;3.38;;;0.80;;
74471;SDS011;62920;53.572;10.050;2023-01-16T08:02:15;2.63;;;0.82;;
74471;SDS011;62920;53.572;10.050;2023-01-16T08:04:40;5.70;;;0.90;;
74471;SDS011;62920;53.572;10.050;2023-01-16T08:07:06;3.67;;;0.85;;
74471;SDS011;62920;53.572;10.050;2023-01-16T08:09:31;5.82;;;1.02;;
74471;SDS011;62920;53.572;10.050;2023-01-16T08:11:57;3.78;;;1.00;;
74471;SDS011;62920;53.572;10.050;2023-01-16T08:14:22;4.38;;;0.80;;
74471;SDS011;62920;53.572;10.050;2023-01-16T08:16:47;2.75;;;0.80;;
74471;SDS011;62920;53.572;10.050;2023-01-16T08:19:13;3.40;;;0.93;;
74471;SDS011;62920;53.572;10.050;2023-01-16T08:21:38;3.13;;;0.85;;
74471;SDS011;62920;53.572;10.050;2023-01-16T08:24:04;5.03;;;0.65;;
74471;SDS011;62920;53.572;10.050;2023-01-16T08:26:29;3.75;;;0.77;;
74471;SDS011;62920;53.572;10.050;2023-01-16T08:28:55;2.75;;;0.80;;
74471;SDS011;62920;53.572;10.050;2023-01-16T08:31:21;2.60;;;0.60;;
74471;SDS011;62920;53.572;10.050;2023-01-16T08:33:48;6.68;;;1.05;;
74471;SDS011;62920;53.572;10.050;2023-01-16T08:36:14;3.38;;;0.70;;
74471;SDS011;62920;53.572;10.050;2023-01-16T08:38:46;4.03;;;0.93;;
74471;SDS011;62920;53.572;10.050;2023-01-16T08:41:14;5.15;;;0.90;;
74471;SDS011;62920;53.572;10.050;2023-01-16T08:43:58;5.13;;;0.80;;
74471;SDS011;62920;53.572;10.050;2023-01-16T08:46:42;2.33;;;0.80;;
74471;SDS011;62920;53.572;10.050;2023-01-16T08:49:29;3.53;;;0.82;;
74471;SDS011;62920;53.572;10.050;2023-01-16T08:52:13;7.93;;;1.20;;
74471;SDS011;62920;53.572;10.050;2023-01-16T08:54:38;2.10;;;0.73;;
74471;SDS011;62920;53.572;10.050;2023-01-16T08:57:04;4.38;;;0.75;;
74471;SDS011;62920;53.572;10.050;2023-01-16T08:59:30;5.75;;;1.08;;
74471;SDS011;62920;53.572;10.050;2023-01-16T09:01:58;4.90;;;1.35;;
74471;SDS011;62920;53.572;10.050;2023-01-16T09:04:25;4.72;;;0.80;;
74471;SDS011;62920;53.572;10.050;2023-01-16T09:06:50;5.18;;;0.88;;
74471;SDS011;62920;53.572;10.050;2023-01-16T09:09:18;5.85;;;0.77;;
74471;SDS011;62920;53.572;10.050;2023-01-16T09:11:44;5.45;;;1.00;;
74471;SDS011;62920;53.572;10.050;2023-01-16T09:14:28;7.13;;;1.30;;
74471;SDS011;62920;53.572;10.050;2023-01-16T09:16:53;3.38;;;1.00;;
74471;SDS011;62920;53.572;10.050;2023-01-16T09:19:18;4.28;;;0.80;;
74471;SDS011;62920;53.572;10.050;2023-01-16T09:21:44;3.45;;;0.90;;
74471;SDS011;62920;53.572;10.050;2023-01-16T09:24:09;3.28;;;0.80;;
74471;SDS011;62920;53.572;10.050;2023-01-16T09:26:35;6.10;;;0.73;;
74471;SDS011;62920;53.572;10.050;2023-01-16T09:29:00;2.10;;;0.55;;
74471;SDS011;62920;53.572;10.050;2023-01-16T09:31:26;2.60;;;0.70;;
74471;SDS011;62920;53.572;10.050;2023-01-16T09:33:51;3.42;;;1.23;;
74471;SDS011;62920;53.572;10.050;2023-01-16T09:36:18;4.57;;;1.17;;
74471;SDS011;62920;53.572;10.050;2023-01-16T09:38:43;3.75;;;1.02;;
74471;SDS011;62920;53.572;10.050;2023-01-16T09:41:10;3.13;;;0.80;;
74471;SDS011;62920;53.572;10.050;2023-01-16T09:43:59;3.25;;;1.15;;
74471;SDS011;62920;53.572;10.050;2023-01-16T09:46:26;3.05;;;0.95;;
74471;SDS011;62920;53.572;10.050;2023-01-16T09:51:54;4.10;;;0.90;;
74471;SDS011;62920;53.572;10.050;2023-01-16T09:54:41;2.67;;;0.50;;
74471;SDS011;62920;53.572;10.050;2023-01-16T09:57:30;1.90;;;0.50;;
74471;SDS011;62920;53.572;10.050;2023-01-16T10:00:16;3.38;;;1.20;;
74471;SDS011;62920;53.572;10.050;2023-01-16T10:02:42;3.38;;;0.98;;
74471;SDS011;62920;53.572;10.050;2023-01-16T10:05:08;2.45;;;0.82;;
74471;SDS011;62920;53.572;10.050;2023-01-16T10:21:41;3.58;;;0.63;;
74471;SDS011;62920;53.572;10.050;2023-01-16T10:24:23;4.20;;;1.10;;
74471;SDS011;62920;53.572;10.050;2023-01-16T10:26:58;1.70;;;0.82;;
74471;SDS011;62920;53.572;10.050;2023-01-16T10:29:29;3.70;;;0.73;;
74471;SDS011;62920;53.572;10.050;2023-01-16T10:32:12;7.72;;;1.08;;
74471;SDS011;62920;53.572;10.050;2023-01-16T10:35:04;3.42;;;1.02;;
74471;SDS011;62920;53.572;10.050;2023-01-16T10:37:47;3.88;;;0.70;;
74471;SDS011;62920;53.572;10.050;2023-01-16T10:40:18;6.68;;;1.00;;
74471;SDS011;62920;53.572;10.050;2023-01-16T10:42:47;3.70;;;0.80;;
74471;SDS011;62920;53.572;10.050;2023-01-16T10:45:34;2.97;;;1.00;;
74471;SDS011;62920;53.572;10.050;2023-01-16T10:48:19;3.70;;;0.75;;
74471;SDS011;62920;53.572;10.050;2023-01-16T10:51:04;4.45;;;0.70;;
74471;SDS011;62920;53.572;10.050;2023-01-16T10:53:30;3.53;;;0.77;;
74471;SDS011;62920;53.572;10.050;2023-01-16T10:55:56;5.32;;;1.20;;
74471;SDS011;62920;53.572;10.050;2023-01-16T10:58:28;3.10;;;0.77;;
74471;SDS011;62920;53.572;10.050;2023-01-16T11:04:04;3.97;;;1.02;;
74471;SDS011;62920;53.572;10.050;2023-01-16T11:06:28;4.43;;;1.02;;
74471;SDS011;62920;53.572;10.050;2023-01-16T11:08:59;5.90;;;1.10;;
74471;SDS011;62920;53.572;10.050;2023-01-16T11:11:26;4.25;;;0.90;;
74471;SDS011;62920;53.572;10.050;2023-01-16T11:22:42;4.25;;;1.08;;
74471;SDS011;62920;53.572;10.050;2023-01-16T11:25:13;5.07;;;0.90;;
74471;SDS011;62920;53.572;10.050;2023-01-16T11:27:43;2.15;;;0.52;;
74471;SDS011;62920;53.572;10.050;2023-01-16T11:30:16;3.22;;;1.00;;
74471;SDS011;62920;53.572;10.050;2023-01-16T11:32:47;3.08;;;0.80;;
74471;SDS011;62920;53.572;10.050;2023-01-16T11:35:14;5.07;;;0.80;;
74471;SDS011;62920;53.572;10.050;2023-01-16T11:37:42;6.97;;;1.02;;
74471;SDS011;62920;53.572;10.050;2023-01-16T11:40:19;2.30;;;0.70;;
74471;SDS011;62920;53.572;10.050;2023-01-16T11:42:57;1.70;;;0.50;;
74471;SDS011;62920;53.572;10.050;2023-01-16T11:45:43;2.10;;;0.75;;
74471;SDS011;62920;53.572;10.050;2023-01-16T11:48:40;2.67;;;0.60;;
74471;SDS011;62920;53.572;10.050;2023-01-16T11:51:14;3.78;;;0.88;;
74471;SDS011;62920;53.572;10.050;2023-01-16T11:53:43;1.77;;;0.50;;
74471;SDS011;62920;53.572;10.050;2023-01-16T11:59:11;4.78;;;0.88;;
74471;SDS011;62920;53.572;10.050;2023-01-16T12:04:50;3.40;;;0.57;;
74471;SDS011;62920;53.572;10.050;2023-01-16T12:07:41;1.25;;;0.40;;
74471;SDS011;62920;53.572;10.050;2023-01-16T12:10:18;4.35;;;1.10;;
74471;SDS011;62920;53.572;10.050;2023-01-16T12:12:50;2.95;;;0.70;;
74471;SDS011;62920;53.572;10.050;2023-01-16T12:18:31;2.13;;;0.70;;
74471;SDS011;62920;53.572;10.050;2023-01-16T12:21:05;3.45;;;0.88;;
74471;SDS011;62920;53.572;10.050;2023-01-16T12:26:39;2.90;;;0.60;;
74471;SDS011;62920;53.572;10.050;2023-01-16T12:43:00;3.60;;;0.65;;
74471;SDS011;62920;53.572;10.050;2023-01-16T12:51:01;2.40;;;0.60;;
74471;SDS011;62920;53.572;10.050;2023-01-16T12:58:57;2.28;;;0.50;;
74471;SDS011;62920;53.572;10.050;2023-01-16T13:01:32;2.50;;;0.60;;
74471;SDS011;62920;53.572;10.050;2023-01-16T13:06:52;3.60;;;0.85;;
74471;SDS011;62920;53.572;10.050;2023-01-16T13:09:32;4.30;;;0.88;;
74471;SDS011;62920;53.572;10.050;2023-01-16T13:12:38;2.10;;;0.73;;
74471;SDS011;62920;53.572;10.050;2023-01-16T13:15:27;4.20;;;0.63;;
74471;SDS011;62920;53.572;10.050;2023-01-16T13:18:06;2.88;;;0.80;;
74471;SDS011;62920;53.572;10.050;2023-01-16T13:20:42;3.28;;;0.68;;
74471;SDS011;62920;53.572;10.050;2023-01-16T13:26:07;2.10;;;0.45;;
74471;SDS011;62920;53.572;10.050;2023-01-16T13:31:39;2.78;;;0.57;;
74471;SDS011;62920;53.572;10.050;2023-01-16T13:34:23;2.90;;;0.80;;
74471;SDS011;62920;53.572;10.050;2023-01-16T13:39:55;2.10;;;0.50;;
74471;SDS011;62920;53.572;10.050;2023-01-16T13:42:23;2.55;;;0.70;;
74471;SDS011;62920;53.572;10.050;2023-01-16T13:44:52;4.40;;;0.85;;
74471;SDS011;62920;53.572;10.050;2023-01-16T13:47:39;1.90;;;0.63;;
74471;SDS011;62920;53.572;10.050;2023-01-16T13:50:22;2.17;;;0.52;;
74471;SDS011;62920;53.572;10.050;2023-01-16T13:52:49;4.53;;;0.85;;
74471;SDS011;62920;53.572;10.050;2023-01-16T13:55:32;2.83;;;0.70;;
74471;SDS011;62920;53.572;10.050;2023-01-16T14:00:37;2.33;;;0.68;;
74471;SDS011;62920;53.572;10.050;2023-01-16T14:03:15;4.30;;;0.77;;
74471;SDS011;62920;53.572;10.050;2023-01-16T14:05:44;5.43;;;0.88;;
74471;SDS011;62920;53.572;10.050;2023-01-16T14:11:03;2.05;;;0.75;;
74471;SDS011;62920;53.572;10.050;2023-01-16T14:13:39;4.32;;;0.90;;
74471;SDS011;62920;53.572;10.050;2023-01-16T14:19:19;9.02;;;1.10;;
74471;SDS011;62920;53.572;10.050;2023-01-16T14:21:46;2.65;;;0.75;;
74471;SDS011;62920;53.572;10.050;2023-01-16T14:24:45;2.25;;;0.60;;
74471;SDS011;62920;53.572;10.050;2023-01-16T14:27:14;2.40;;;0.50;;
74471;SDS011;62920;53.572;10.050;2023-01-16T14:29:44;1.15;;;0.40;;
74471;SDS011;62920;53.572;10.050;2023-01-16T14:32:23;1.02;;;0.50;;
74471;SDS011;62920;53.572;10.050;2023-01-16T14:34:50;2.60;;;0.73;;
74471;SDS011;62920;53.572;10.050;2023-01-16T14:39:51;6.07;;;0.85;;
74471;SDS011;62920;53.572;10.050;2023-01-16T14:45:31;2.08;;;0.60;;
74471;SDS011;62920;53.572;10.050;2023-01-16T14:51:27;6.03;;;0.93;;
74471;SDS011;62920;53.572;10.050;2023-01-16T14:54:20;3.10;;;0.85;;
74471;SDS011;62920;53.572;10.050;2023-01-16T15:00:06;5.38;;;0.70;;
74471;SDS011;62920;53.572;10.050;2023-01-16T15:02:46;1.67;;;0.68;;
74471;SDS011;62920;53.572;10.050;2023-01-16T15:10:45;4.60;;;0.75;;
74471;SDS011;62920;53.572;10.050;2023-01-16T15:13:12;2.03;;;0.50;;
74471;SDS011;62920;53.572;10.050;2023-01-16T15:16:04;4.32;;;0.75;;
74471;SDS011;62920;53.572;10.050;2023-01-16T15:18:32;2.50;;;0.80;;
74471;SDS011;62920;53.572;10.050;2023-01-16T15:21:17;1.85;;;0.60;;
74471;SDS011;62920;53.572;10.050;2023-01-16T15:23:46;3.55;;;0.80;;
74471;SDS011;62920;53.572;10.050;2023-01-16T15:26:30;3.95;;;1.13;;
74471;SDS011;62920;53.572;10.050;2023-01-16T15:31:55;3.88;;;0.70;;
74471;SDS011;62920;53.572;10.050;2023-01-16T15:34:24;2.67;;;1.08;;
74471;SDS011;62920;53.572;10.050;2023-01-16T15:36:51;5.13;;;1.17;;
74471;SDS011;62920;53.572;10.050;2023-01-16T15:41:44;5.03;;;0.60;;
74471;SDS011;62920;53.572;10.050;2023-01-16T15:44:30;8.07;;;1.60;;
74471;SDS011;62920;53.572;10.050;2023-01-16T15:52:31;4.25;;;0.80;;
74471;SDS011;62920;53.572;10.050;2023-01-16T15:55:20;2.38;;;0.80;;
74471;SDS011;62920;53.572;10.050;2023-01-16T15:57:48;5.50;;;1.10;;
74471;SDS011;62920;53.572;10.050;2023-01-16T16:00:21;4.63;;;0.88;;
74471;SDS011;62920;53.572;10.050;2023-01-16T16:02:56;2.88;;;0.90;;
74471;SDS011;62920;53.572;10.050;2023-01-16T16:05:26;1.90;;;0.60;;
74471;SDS011;62920;53.572;10.050;2023-01-16T16:07:53;3.50;;;0.90;;
74471;SDS011;62920;53.572;10.050;2023-01-16T16:10:19;2.72;;;0.70;;
74471;SDS011;62920;53.572;10.050;2023-01-16T16:15:30;3.83;;;0.60;;
74471;SDS011;62920;53.572;10.050;2023-01-16T16:18:15;4.53;;;0.90;;
74471;SDS011;62920;53.572;10.050;2023-01-16T16:20:42;6.75;;;0.80;;
74471;SDS011;62920;53.572;10.050;2023-01-16T16:23:18;2.33;;;0.70;;
74471;SDS011;62920;53.572;10.050;2023-01-16T16:31:02;3.08;;;1.02;;
74471;SDS011;62920;53.572;10.050;2023-01-16T16:33:31;3.28;;;0.77;;
74471;SDS011;62920;53.572;10.050;2023-01-16T16:36:00;7.32;;;0.80;;
74471;SDS011;62920;53.572;10.050;2023-01-16T16:38:30;3.28;;;0.55;;
74471;SDS011;62920;53.572;10.050;2023-01-16T16:46:41;4.00;;;1.13;;
74471;SDS011;62920;53.572;10.050;2023-01-16T16:51:34;2.42;;;0.70;;
74471;SDS011;62920;53.572;10.050;2023-01-16T16:54:10;3.53;;;0.82;;
74471;SDS011;62920;53.572;10.050;2023-01-16T16:56:39;2.75;;;0.40;;
74471;SDS011;62920;53.572;10.050;2023-01-16T16:59:13;3.28;;;0.90;;
74471;SDS011;62920;53.572;10.050;2023-01-16T17:01:44;3.20;;;0.82;;
74471;SDS011;62920;53.572;10.050;2023-01-16T17:04:12;3.83;;;0.80;;
74471;SDS011;62920;53.572;10.050;2023-01-16T17:06:42;2.65;;;0.82;;
74471;SDS011;62920;53.572;10.050;2023-01-16T17:09:12;3.47;;;0.80;;
74471;SDS011;62920;53.572;10.050;2023-01-16T17:11:39;3.72;;;0.70;;
74471;SDS011;62920;53.572;10.050;2023-01-16T17:14:05;2.70;;;0.80;;
74471;SDS011;62920;53.572;10.050;2023-01-16T17:16:30;2.47;;;0.70;;
74471;SDS011;62920;53.572;10.050;2023-01-16T17:18:57;3.15;;;0.52;;
74471;SDS011;62920;53.572;10.050;2023-01-16T17:21:24;2.70;;;0.70;;
74471;SDS011;62920;53.572;10.050;2023-01-16T17:23:49;3.10;;;0.95;;
74471;SDS011;62920;53.572;10.050;2023-01-16T17:26:15;3.45;;;0.80;;
74471;SDS011;62920;53.572;10.050;2023-01-16T17:28:42;2.80;;;0.70;;
74471;SDS011;62920;53.572;10.050;2023-01-16T17:31:10;6.10;;;1.23;;
74471;SDS011;62920;53.572;10.050;2023-01-16T17:33:40;5.60;;;1.00;;
74471;SDS011;62920;53.572;10.050;2023-01-16T17:36:06;4.70;;;1.02;;
74471;SDS011;62920;53.572;10.050;2023-01-16T17:38:38;3.80;;;0.85;;
74471;SDS011;62920;53.572;10.050;2023-01-16T17:41:05;3.25;;;0.80;;
74471;SDS011;62920;53.572;10.050;2023-01-16T17:43:49;3.42;;;0.77;;
74471;SDS011;62920;53.572;10.050;2023-01-16T17:48:59;3.20;;;0.98;;
74471;SDS011;62920;53.572;10.050;2023-01-16T17:51:24;1.45;;;0.80;;
74471;SDS011;62920;53.572;10.050;2023-01-16T17:53:50;3.15;;;0.90;;
74471;SDS011;62920;53.572;10.050;2023-01-16T17:56:17;4.47;;;0.75;;
74471;SDS011;62920;53.572;10.050;2023-01-16T17:58:43;3.85;;;1.10;;
74471;SDS011;62920;53.572;10.050;2023-01-16T18:01:10;3.50;;;0.80;;